Wan Hai 510 — 9VJJ8 — position and weather

sailwx.info

Track history (hours):
 
Tides and Currents Weather Stations Pressure Air Temp Water Temp Dewpoint Dewpoint Depression Visibility Wind Speed Wind Dir Waves Ship Positions

Wan Hai 510

Last reported at 2015-Feb-23 14:30 UTC. Time now 2015-Mar-02 20:33 UTC.
Position N 01°10' E 103°47'.

Length 269 m; draft 12.3 m.

Type: Cargo ship. MMSI: 565741000.

Date/timePositionNaut miles runAvg speedWind from/ knotsBaromVisibWave heightAir tempDewpointWater temp
2015-Feb-23 14:30N 01°10' E 103°47'7 7.7
2015-Feb-23 13:33N 01°16' E 103°50'0 0.3
2015-Feb-23 12:14N 01°16' E 103°50'0 0.0
2015-Feb-23 11:32N 01°16' E 103°50'0 0.0
2015-Feb-23 10:32N 01°16' E 103°50'0 0.0
2015-Feb-23 09:32N 01°16' E 103°50'0 0.0
2015-Feb-23 08:26N 01°16' E 103°50'0 0.0
2015-Feb-23 07:32N 01°16' E 103°50'0 0.0
2015-Feb-23 06:32N 01°16' E 103°50'0 0.0
2015-Feb-23 05:32N 01°16' E 103°50'0 0.0
2015-Feb-23 04:32N 01°16' E 103°50'0 0.0
2015-Feb-23 03:32N 01°16' E 103°50'0 0.2
2015-Feb-23 02:33N 01°16' E 103°50'5 4.2
2015-Feb-23 01:28N 01°13' E 103°54'  
2015-Feb-20 03:20N 22°12' E 114°10'1111.7
2015-Feb-20 02:21N 22°21' E 114°03'911.3
2015-Feb-20 01:33N 22°24' E 113°53'3 3.1
2015-Feb-20 00:30N 22°27' E 113°54'0 0.0
2015-Feb-19 23:30N 22°27' E 113°54'0 0.0
2015-Feb-19 22:30N 22°27' E 113°54'0 0.0
2015-Feb-19 21:30N 22°27' E 113°54'0 0.0
2015-Feb-19 20:30N 22°27' E 113°54'0 0.0
2015-Feb-19 19:30N 22°27' E 113°54'0 0.0
2015-Feb-19 18:30N 22°27' E 113°54'0 0.0
2015-Feb-19 17:30N 22°27' E 113°54'0 0.0
2015-Feb-19 16:30N 22°27' E 113°54'0 0.0
2015-Feb-19 15:30N 22°27' E 113°54'0 0.0
2015-Feb-19 14:30N 22°27' E 113°54'0 0.0
2015-Feb-19 13:30N 22°27' E 113°54'0 0.0
2015-Feb-19 12:30N 22°27' E 113°54'0 0.0
2015-Feb-19 11:30N 22°27' E 113°54'0 0.0
2015-Feb-19 10:30N 22°27' E 113°54'0 0.0
2015-Feb-19 09:30N 22°27' E 113°54'0 0.0
2015-Feb-19 08:30N 22°27' E 113°54'0 0.0
2015-Feb-19 07:30N 22°27' E 113°54'0 0.0
2015-Feb-19 06:30N 22°27' E 113°54'4 3.8
2015-Feb-19 05:33N 22°24' E 113°54'11 9.4
2015-Feb-19 04:25N 22°20' E 114°05'1 1.5
2015-Feb-19 03:31N 22°19' E 114°05'0 0.0
2015-Feb-19 02:31N 22°19' E 114°05'0 0.0
2015-Feb-19 01:31N 22°19' E 114°05'0 0.0
2015-Feb-19 00:31N 22°19' E 114°05'0 0.1
2015-Feb-18 23:31N 22°19' E 114°05'0 0.0
2015-Feb-18 22:31N 22°19' E 114°05'0 0.1
2015-Feb-18 21:31N 22°19' E 114°05'0 0.0
2015-Feb-18 20:31N 22°19' E 114°05'0 0.1
2015-Feb-18 19:31N 22°19' E 114°05'0 0.1
2015-Feb-18 18:31N 22°19' E 114°05'0 0.1
2015-Feb-18 17:31N 22°19' E 114°05'0 0.0
2015-Feb-18 16:31N 22°19' E 114°05'0 0.1
2015-Feb-18 15:31N 22°19' E 114°05'0 0.1
2015-Feb-18 14:31N 22°19' E 114°05'0 0.4
2015-Feb-18 13:34N 22°19' E 114°05'3 2.6
2015-Feb-18 12:33N 22°20' E 114°07'0 0.0
2015-Feb-18 11:31N 22°20' E 114°07'0 0.0
2015-Feb-18 10:22N 22°20' E 114°07'0 0.0
2015-Feb-18 09:31N 22°20' E 114°07'0 0.0
2015-Feb-18 08:31N 22°20' E 114°07'0 0.0
2015-Feb-18 07:19N 22°20' E 114°07'0 0.0
2015-Feb-18 06:31N 22°20' E 114°07'0 0.0
2015-Feb-18 05:31N 22°20' E 114°07'0 0.0
2015-Feb-18 04:31N 22°20' E 114°07'0 0.0
2015-Feb-18 03:31N 22°20' E 114°07'0 0.0
2015-Feb-18 02:28N 22°20' E 114°07'0 0.0
2015-Feb-18 01:28N 22°20' E 114°07'0 0.0
2015-Feb-18 00:28N 22°20' E 114°07'0 0.0
2015-Feb-17 23:33N 22°20' E 114°07'8 7.4
2015-Feb-17 22:31N 22°13' E 114°10'10 9.9
2015-Feb-17 21:30N 22°04' E 114°15'0 0.0
2015-Feb-17 19:33N 22°04' E 114°15'0 0.0
2015-Feb-17 16:33N 22°04' E 114°16'0 0.0
2015-Feb-17 15:33N 22°04' E 114°16'0 0.0
2015-Feb-17 14:33N 22°04' E 114°16'0 0.1
2015-Feb-17 13:18N 22°04' E 114°15'0 0.0
2015-Feb-17 12:30N 22°04' E 114°15'0 0.1
2015-Feb-17 11:24N 22°04' E 114°15'0 0.0
2015-Feb-17 07:31N 22°04' E 114°16'1210.7
2015-Feb-17 06:25N 22°09' E 114°27'16815.2
2015-Feb-16 19:23N 22°25' E 117°28'10214.2
2015-Feb-16 12:11N 22°30' E 119°18'2714.3
2015-Feb-16 10:19N 22°32' E 119°47'1114.5
2015-Feb-16 09:32N 22°32' E 119°59'1313.3
2015-Feb-16 08:33N 22°33' E 120°14'0 0.3
2015-Feb-16 07:32N 22°33' E 120°14'0 0.3
2015-Feb-16 06:26N 22°33' E 120°14'4 4.9
2015-Feb-16 05:33N 22°33' E 120°19'2 1.6
2015-Feb-16 04:33N 22°35' E 120°18'0 0.0
2015-Feb-16 03:23N 22°35' E 120°18'0 0.1
2015-Feb-16 02:29N 22°35' E 120°18'0 0.1
2015-Feb-16 01:23N 22°35' E 120°18'0 0.0
2015-Feb-16 00:23N 22°35' E 120°18'0 0.0
2015-Feb-15 23:29N 22°35' E 120°18'0 0.0
2015-Feb-15 22:29N 22°35' E 120°18'0 0.0
2015-Feb-15 21:29N 22°35' E 120°18'0 0.1
2015-Feb-15 20:29N 22°35' E 120°18'0 0.1
2015-Feb-15 19:23N 22°35' E 120°18'0 0.0
2015-Feb-15 18:29N 22°35' E 120°18'0 0.0
2015-Feb-15 17:29N 22°35' E 120°18'0 0.0
2015-Feb-15 16:23N 22°35' E 120°18'0 0.0
2015-Feb-15 15:29N 22°35' E 120°18'0 0.0
2015-Feb-15 14:29N 22°35' E 120°18'0 0.0
2015-Feb-15 13:29N 22°35' E 120°18'0 0.0
2015-Feb-15 12:29N 22°35' E 120°18'0 0.0
2015-Feb-15 11:29N 22°35' E 120°18'0 0.0
2015-Feb-15 10:29N 22°35' E 120°18'0 0.0
2015-Feb-15 09:29N 22°35' E 120°18'0 0.0
2015-Feb-15 08:29N 22°35' E 120°18'0 0.0
2015-Feb-15 07:23N 22°35' E 120°18'0 0.0
2015-Feb-15 06:29N 22°35' E 120°18'0 0.0
2015-Feb-15 05:11N 22°35' E 120°18'0 0.0
2015-Feb-15 04:23N 22°35' E 120°18'0 0.0
2015-Feb-15 03:11N 22°35' E 120°18'0 0.0
2015-Feb-15 02:29N 22°35' E 120°18'0 0.0
2015-Feb-15 01:23N 22°35' E 120°18'0 0.0
2015-Feb-15 00:29N 22°35' E 120°18'1 1.5
2015-Feb-14 23:33N 22°33' E 120°19'2311.4
2015-Feb-14 21:33N 22°16' E 120°03'  
Track history (hours):
 
Tides and Currents Weather Stations Pressure Air Temp Water Temp Dewpoint Dewpoint Depression Visibility Wind Speed Wind Dir Waves Ship Positions

Wan Hai 510

Last reported at 2015-Feb-23 14:30 UTC. Time now 2015-Mar-02 20:33 UTC.
Position N 01°10' E 103°47'.

Length 269 m; draft 12.3 m.

Type: Cargo ship. MMSI: 565741000.

Date/timePositionNaut miles runAvg speedWind from/ knotsBaromVisibWave heightAir tempDewpointWater temp
2015-Feb-23 14:30N 01°10' E 103°47'7 7.7
2015-Feb-23 13:33N 01°16' E 103°50'0 0.3
2015-Feb-23 12:14N 01°16' E 103°50'0 0.0
2015-Feb-23 11:32N 01°16' E 103°50'0 0.0
2015-Feb-23 10:32N 01°16' E 103°50'0 0.0
2015-Feb-23 09:32N 01°16' E 103°50'0 0.0
2015-Feb-23 08:26N 01°16' E 103°50'0 0.0
2015-Feb-23 07:32N 01°16' E 103°50'0 0.0
2015-Feb-23 06:32N 01°16' E 103°50'0 0.0
2015-Feb-23 05:32N 01°16' E 103°50'0 0.0
2015-Feb-23 04:32N 01°16' E 103°50'0 0.0
2015-Feb-23 03:32N 01°16' E 103°50'0 0.2
2015-Feb-23 02:33N 01°16' E 103°50'5 4.2
2015-Feb-23 01:28N 01°13' E 103°54'  
2015-Feb-20 03:20N 22°12' E 114°10'1111.7
2015-Feb-20 02:21N 22°21' E 114°03'911.3
2015-Feb-20 01:33N 22°24' E 113°53'3 3.1
2015-Feb-20 00:30N 22°27' E 113°54'0 0.0
2015-Feb-19 23:30N 22°27' E 113°54'0 0.0
2015-Feb-19 22:30N 22°27' E 113°54'0 0.0
2015-Feb-19 21:30N 22°27' E 113°54'0 0.0
2015-Feb-19 20:30N 22°27' E 113°54'0 0.0
2015-Feb-19 19:30N 22°27' E 113°54'0 0.0
2015-Feb-19 18:30N 22°27' E 113°54'0 0.0
2015-Feb-19 17:30N 22°27' E 113°54'0 0.0
2015-Feb-19 16:30N 22°27' E 113°54'0 0.0
2015-Feb-19 15:30N 22°27' E 113°54'0 0.0
2015-Feb-19 14:30N 22°27' E 113°54'0 0.0
2015-Feb-19 13:30N 22°27' E 113°54'0 0.0
2015-Feb-19 12:30N 22°27' E 113°54'0 0.0
2015-Feb-19 11:30N 22°27' E 113°54'0 0.0
2015-Feb-19 10:30N 22°27' E 113°54'0 0.0
2015-Feb-19 09:30N 22°27' E 113°54'0 0.0
2015-Feb-19 08:30N 22°27' E 113°54'0 0.0
2015-Feb-19 07:30N 22°27' E 113°54'0 0.0
2015-Feb-19 06:30N 22°27' E 113°54'4 3.8
2015-Feb-19 05:33N 22°24' E 113°54'11 9.4
2015-Feb-19 04:25N 22°20' E 114°05'1 1.5
2015-Feb-19 03:31N 22°19' E 114°05'0 0.0
2015-Feb-19 02:31N 22°19' E 114°05'0 0.0
2015-Feb-19 01:31N 22°19' E 114°05'0 0.0
2015-Feb-19 00:31N 22°19' E 114°05'0 0.1
2015-Feb-18 23:31N 22°19' E 114°05'0 0.0
2015-Feb-18 22:31N 22°19' E 114°05'0 0.1
2015-Feb-18 21:31N 22°19' E 114°05'0 0.0
2015-Feb-18 20:31N 22°19' E 114°05'0 0.1
2015-Feb-18 19:31N 22°19' E 114°05'0 0.1
2015-Feb-18 18:31N 22°19' E 114°05'0 0.1
2015-Feb-18 17:31N 22°19' E 114°05'0 0.0
2015-Feb-18 16:31N 22°19' E 114°05'0 0.1
2015-Feb-18 15:31N 22°19' E 114°05'0 0.1
2015-Feb-18 14:31N 22°19' E 114°05'0 0.4
2015-Feb-18 13:34N 22°19' E 114°05'3 2.6
2015-Feb-18 12:33N 22°20' E 114°07'0 0.0
2015-Feb-18 11:31N 22°20' E 114°07'0 0.0
2015-Feb-18 10:22N 22°20' E 114°07'0 0.0
2015-Feb-18 09:31N 22°20' E 114°07'0 0.0
2015-Feb-18 08:31N 22°20' E 114°07'0 0.0
2015-Feb-18 07:19N 22°20' E 114°07'0 0.0
2015-Feb-18 06:31N 22°20' E 114°07'0 0.0
2015-Feb-18 05:31N 22°20' E 114°07'0 0.0
2015-Feb-18 04:31N 22°20' E 114°07'0 0.0
2015-Feb-18 03:31N 22°20' E 114°07'0 0.0
2015-Feb-18 02:28N 22°20' E 114°07'0 0.0
2015-Feb-18 01:28N 22°20' E 114°07'0 0.0
2015-Feb-18 00:28N 22°20' E 114°07'0 0.0
2015-Feb-17 23:33N 22°20' E 114°07'8 7.4
2015-Feb-17 22:31N 22°13' E 114°10'10 9.9
2015-Feb-17 21:30N 22°04' E 114°15'0 0.0
2015-Feb-17 19:33N 22°04' E 114°15'0 0.0
2015-Feb-17 16:33N 22°04' E 114°16'0 0.0
2015-Feb-17 15:33N 22°04' E 114°16'0 0.0
2015-Feb-17 14:33N 22°04' E 114°16'0 0.1
2015-Feb-17 13:18N 22°04' E 114°15'0 0.0
2015-Feb-17 12:30N 22°04' E 114°15'0 0.1
2015-Feb-17 11:24N 22°04' E 114°15'0 0.0
2015-Feb-17 07:31N 22°04' E 114°16'1210.7
2015-Feb-17 06:25N 22°09' E 114°27'16815.2
2015-Feb-16 19:23N 22°25' E 117°28'10214.2
2015-Feb-16 12:11N 22°30' E 119°18'2714.3
2015-Feb-16 10:19N 22°32' E 119°47'1114.5
2015-Feb-16 09:32N 22°32' E 119°59'1313.3
2015-Feb-16 08:33N 22°33' E 120°14'0 0.3
2015-Feb-16 07:32N 22°33' E 120°14'0 0.3
2015-Feb-16 06:26N 22°33' E 120°14'4 4.9
2015-Feb-16 05:33N 22°33' E 120°19'2 1.6
2015-Feb-16 04:33N 22°35' E 120°18'0 0.0
2015-Feb-16 03:23N 22°35' E 120°18'0 0.1
2015-Feb-16 02:29N 22°35' E 120°18'0 0.1
2015-Feb-16 01:23N 22°35' E 120°18'0 0.0
2015-Feb-16 00:23N 22°35' E 120°18'0 0.0
2015-Feb-15 23:29N 22°35' E 120°18'0 0.0
2015-Feb-15 22:29N 22°35' E 120°18'0 0.0
2015-Feb-15 21:29N 22°35' E 120°18'0 0.1
2015-Feb-15 20:29N 22°35' E 120°18'0 0.1
2015-Feb-15 19:23N 22°35' E 120°18'0 0.0
2015-Feb-15 18:29N 22°35' E 120°18'0 0.0
2015-Feb-15 17:29N 22°35' E 120°18'0 0.0
2015-Feb-15 16:23N 22°35' E 120°18'0 0.0
2015-Feb-15 15:29N 22°35' E 120°18'0 0.0
2015-Feb-15 14:29N 22°35' E 120°18'0 0.0
2015-Feb-15 13:29N 22°35' E 120°18'0 0.0
2015-Feb-15 12:29N 22°35' E 120°18'0 0.0
2015-Feb-15 11:29N 22°35' E 120°18'0 0.0
2015-Feb-15 10:29N 22°35' E 120°18'0 0.0
2015-Feb-15 09:29N 22°35' E 120°18'0 0.0
2015-Feb-15 08:29N 22°35' E 120°18'0 0.0
2015-Feb-15 07:23N 22°35' E 120°18'0 0.0
2015-Feb-15 06:29N 22°35' E 120°18'0 0.0
2015-Feb-15 05:11N 22°35' E 120°18'0 0.0
2015-Feb-15 04:23N 22°35' E 120°18'0 0.0
2015-Feb-15 03:11N 22°35' E 120°18'0 0.0
2015-Feb-15 02:29N 22°35' E 120°18'0 0.0
2015-Feb-15 01:23N 22°35' E 120°18'0 0.0
2015-Feb-15 00:29N 22°35' E 120°18'1 1.5
2015-Feb-14 23:33N 22°33' E 120°19'2311.4
2015-Feb-14 21:33N 22°16' E 120°03'  

Dump ship's entire track history